Time;durP1;ratioP1;P1;durP2;ratioP2;P2;SDS_P1;SDS_P2;PMS_P1;PMS_P2;Temp;Humidity;BMP_temperature;BMP_pressure;BME280_temperature;BME280_humidity;BME280_pressure;Samples;Min_cycle;Max_cycle;Signal;HPM_P1;HPM_P2
2023/01/19 00:01:37;;;;;;;7.22;5.70;;;3.90;99.90;;;;;;5032836;28;20165;-73
2023/01/19 00:04:02;;;;;;;8.20;6.30;;;3.90;99.90;;;;;;5032692;28;20250;-73
2023/01/19 00:06:29;;;;;;;7.00;5.70;;;3.90;99.90;;;;;;5016228;28;20291;-73
2023/01/19 00:08:55;;;;;;;8.50;5.97;;;3.90;99.90;;;;;;5014714;28;20427;-73
2023/01/19 00:11:25;;;;;;;9.53;7.20;;;3.90;99.90;;;;;;5031780;28;20518;-73
2023/01/19 00:13:52;;;;;;;7.65;6.20;;;3.90;99.90;;;;;;5030517;28;20423;-73
2023/01/19 00:16:22;;;;;;;9.88;6.25;;;3.90;99.90;;;;;;5014036;28;20658;-73
2023/01/19 00:18:52;;;;;;;7.35;6.25;;;3.90;99.90;;;;;;5036327;28;20233;-71
2023/01/19 00:21:20;;;;;;;14.13;6.13;;;3.90;99.90;;;;;;5010148;28;20188;-71
2023/01/19 00:23:50;;;;;;;8.10;6.40;;;3.90;99.90;;;;;;5013667;28;20173;-71
2023/01/19 00:26:20;;;;;;;8.23;6.32;;;3.90;99.90;;;;;;5032367;28;20800;-71
2023/01/19 00:28:50;;;;;;;8.43;6.35;;;3.90;99.90;;;;;;5032661;28;20205;-71
2023/01/19 00:31:20;;;;;;;8.73;6.60;;;3.90;99.90;;;;;;5032974;28;20248;-71
2023/01/19 00:33:48;;;;;;;9.95;6.75;;;3.90;99.90;;;;;;5015098;28;20180;-71
2023/01/19 00:36:14;;;;;;;9.00;6.22;;;3.90;99.90;;;;;;5032767;28;20647;-71
2023/01/19 00:38:41;;;;;;;8.60;5.90;;;3.90;99.90;;;;;;5032759;28;20573;-71
2023/01/19 00:41:07;;;;;;;8.05;6.65;;;3.90;99.90;;;;;;5049330;28;20215;-71
2023/01/19 00:43:33;;;;;;;10.00;6.13;;;3.90;99.90;;;;;;5031563;28;20180;-71
2023/01/19 00:46:01;;;;;;;10.05;5.80;;;3.90;99.90;;;;;;5032701;28;20216;-71
2023/01/19 00:48:30;;;;;;;9.90;6.07;;;3.90;99.90;;;;;;5033613;28;20234;-71
2023/01/19 00:50:56;;;;;;;8.98;6.72;;;3.90;99.90;;;;;;5032418;28;20431;-71
2023/01/19 00:53:22;;;;;;;6.93;5.57;;;3.90;99.90;;;;;;5033740;28;20153;-71
2023/01/19 00:55:53;;;;;;;11.80;6.47;;;3.90;99.90;;;;;;5031999;28;20208;-71
2023/01/19 00:58:22;;;;;;;8.95;6.70;;;3.90;99.90;;;;;;5016108;28;20386;-71
2023/01/19 01:00:51;;;;;;;14.05;7.20;;;3.90;99.90;;;;;;5033410;28;20161;-71
2023/01/19 01:03:26;;;;;;;7.82;6.55;;;3.90;99.90;;;;;;5015908;28;20189;-71
2023/01/19 01:05:52;;;;;;;7.88;6.35;;;3.90;99.90;;;;;;5032061;28;20216;-71
2023/01/19 01:08:18;;;;;;;7.07;5.78;;;3.90;99.90;;;;;;5032209;28;20192;-71
2023/01/19 01:10:44;;;;;;;8.90;6.73;;;3.90;99.90;;;;;;5032148;28;20741;-71
2023/01/19 01:13:13;;;;;;;12.10;6.25;;;3.90;99.90;;;;;;5032114;28;20407;-71
2023/01/19 01:15:39;;;;;;;8.48;6.63;;;3.90;99.90;;;;;;5033183;28;20193;-71
2023/01/19 01:18:05;;;;;;;10.10;6.73;;;3.90;99.90;;;;;;5021743;28;20538;-71
2023/01/19 01:20:33;;;;;;;9.00;6.80;;;3.90;99.90;;;;;;5012288;28;20493;-71
2023/01/19 01:23:02;;;;;;;6.80;6.07;;;3.90;99.90;;;;;;5012523;28;20926;-71
2023/01/19 01:25:36;;;;;;;8.10;6.38;;;3.90;99.90;;;;;;5024921;28;20280;-71
2023/01/19 01:28:05;;;;;;;8.77;6.03;;;3.90;99.90;;;;;;5064337;28;20634;-71
2023/01/19 01:30:31;;;;;;;9.40;6.50;;;3.90;99.90;;;;;;5030848;28;20185;-71
2023/01/19 01:33:00;;;;;;;8.88;6.18;;;3.90;99.90;;;;;;5049225;28;20264;-71
2023/01/19 01:35:28;;;;;;;8.57;6.90;;;3.90;99.90;;;;;;5032648;28;20680;-71
2023/01/19 01:37:57;;;;;;;9.15;7.03;;;3.90;99.90;;;;;;5031951;28;20169;-71
2023/01/19 01:40:23;;;;;;;8.48;6.68;;;3.90;99.90;;;;;;5015438;28;20216;-71
2023/01/19 01:42:52;;;;;;;8.77;6.05;;;3.90;99.90;;;;;;5031669;28;20212;-72
2023/01/19 01:45:34;;;;;;;10.75;6.82;;;3.90;99.90;;;;;;5011515;28;20244;-72
2023/01/19 01:48:26;;;;;;;6.85;6.13;;;3.90;99.90;;;;;;5011810;28;20206;-72
2023/01/19 01:53:48;;;;;;;13.75;6.43;;;3.90;99.90;;;;;;5028039;28;20198;-72
2023/01/19 01:56:20;;;;;;;8.65;6.72;;;3.80;99.90;;;;;;5012017;28;20587;-72
2023/01/19 01:58:47;;;;;;;10.10;7.47;;;3.90;99.90;;;;;;5021593;28;20287;-72
2023/01/19 02:03:58;;;;;;;8.02;6.28;;;3.90;99.90;;;;;;5031371;28;20687;-72
2023/01/19 02:06:25;;;;;;;8.05;6.35;;;3.90;99.90;;;;;;5031271;28;20241;-71
2023/01/19 02:14:36;;;;;;;8.60;7.13;;;3.90;99.90;;;;;;5031324;28;20212;-71
2023/01/19 02:17:03;;;;;;;13.23;7.50;;;3.90;99.90;;;;;;5032448;28;20284;-72
2023/01/19 02:19:40;;;;;;;7.00;6.22;;;3.90;99.90;;;;;;5015102;28;20184;-72
2023/01/19 02:22:19;;;;;;;8.82;7.20;;;3.90;99.90;;;;;;5031044;28;20200;-71
2023/01/19 02:24:45;;;;;;;7.57;6.18;;;3.90;99.90;;;;;;5032172;28;20196;-71
2023/01/19 02:27:14;;;;;;;8.45;6.13;;;3.90;99.90;;;;;;5031049;28;20545;-72
2023/01/19 02:29:40;;;;;;;8.45;6.63;;;3.90;99.90;;;;;;5032490;28;20180;-71
2023/01/19 02:32:09;;;;;;;9.45;7.28;;;3.90;99.90;;;;;;5011403;28;20213;-72
2023/01/19 02:34:35;;;;;;;9.25;6.35;;;3.90;99.90;;;;;;5011266;28;20198;-72
2023/01/19 02:37:09;;;;;;;8.70;6.72;;;3.90;99.90;;;;;;5014733;28;20162;-71
2023/01/19 02:39:54;;;;;;;7.93;6.25;;;3.90;99.90;;;;;;5017495;28;20207;-72
2023/01/19 02:42:26;;;;;;;8.85;6.22;;;3.90;99.90;;;;;;5034356;28;20211;-72
2023/01/19 02:44:56;;;;;;;8.88;6.45;;;3.90;99.90;;;;;;5035139;28;20200;-71
2023/01/19 02:47:25;;;;;;;10.52;5.75;;;3.90;99.90;;;;;;5036070;28;20658;-72
2023/01/19 02:49:59;;;;;;;8.77;6.03;;;3.90;99.90;;;;;;5034182;28;20639;-72
2023/01/19 02:52:30;;;;;;;8.13;6.05;;;3.90;99.90;;;;;;5035103;28;20185;-72
2023/01/19 02:55:15;;;;;;;8.95;6.72;;;3.90;99.90;;;;;;5034214;28;20188;-72
2023/01/19 02:58:01;;;;;;;9.68;6.35;;;3.90;99.90;;;;;;5051435;28;20223;-71
2023/01/19 03:00:51;;;;;;;9.50;6.28;;;3.90;99.90;;;;;;5035787;28;20176;-72
2023/01/19 03:03:46;;;;;;;8.55;6.03;;;3.90;99.90;;;;;;5018336;28;20213;-72
2023/01/19 03:06:35;;;;;;;9.02;7.57;;;3.90;99.90;;;;;;5018051;28;20887;-71
2023/01/19 03:09:31;;;;;;;8.25;6.60;;;3.90;99.90;;;;;;5035584;28;20211;-72
2023/01/19 03:12:08;;;;;;;7.65;6.13;;;3.90;99.90;;;;;;5014813;28;20193;-72
2023/01/19 03:14:43;;;;;;;7.93;6.55;;;3.90;99.90;;;;;;5035544;28;20207;-71
2023/01/19 03:17:16;;;;;;;6.88;6.15;;;3.90;99.90;;;;;;5035859;28;20187;-71
2023/01/19 03:19:47;;;;;;;7.65;5.45;;;3.90;99.90;;;;;;5033760;28;20689;-71
2023/01/19 03:22:19;;;;;;;10.82;6.55;;;3.90;99.90;;;;;;5018020;28;20601;-71
2023/01/19 03:24:47;;;;;;;7.43;5.40;;;3.90;99.90;;;;;;5034356;28;20270;-72
2023/01/19 03:27:27;;;;;;;8.65;6.10;;;3.90;99.90;;;;;;5050741;28;20213;-72
2023/01/19 03:30:10;;;;;;;9.57;6.50;;;3.90;99.90;;;;;;5035500;28;20176;-72
2023/01/19 03:32:42;;;;;;;9.82;6.88;;;3.90;99.90;;;;;;5035304;28;20162;-72
2023/01/19 03:35:16;;;;;;;7.93;6.05;;;3.90;99.90;;;;;;5034299;28;20574;-71
2023/01/19 03:37:44;;;;;;;6.68;5.75;;;3.90;99.90;;;;;;5035064;28;20177;-72
2023/01/19 03:40:11;;;;;;;7.68;5.97;;;3.90;99.90;;;;;;5017604;28;20187;-72
2023/01/19 03:42:43;;;;;;;8.35;5.93;;;3.90;99.90;;;;;;5017758;28;20173;-72
2023/01/19 03:45:12;;;;;;;9.77;6.32;;;3.90;99.90;;;;;;5013575;28;20256;-72
2023/01/19 03:47:41;;;;;;;8.55;6.85;;;3.90;99.90;;;;;;5015053;28;20201;-71
2023/01/19 03:50:27;;;;;;;7.30;6.00;;;3.90;99.90;;;;;;5030572;28;20258;-72
2023/01/19 03:53:12;;;;;;;11.43;7.22;;;3.90;99.90;;;;;;5013682;28;20173;-71
2023/01/19 03:55:41;;;;;;;9.65;6.20;;;3.90;99.90;;;;;;5023155;28;20220;-71
2023/01/19 03:58:09;;;;;;;11.18;6.00;;;3.90;99.90;;;;;;5033630;28;20188;-71
2023/01/19 04:00:36;;;;;;;9.15;6.28;;;3.90;99.90;;;;;;5033544;28;20180;-71
2023/01/19 04:03:03;;;;;;;8.65;6.45;;;3.90;99.90;;;;;;5033096;28;20224;-71
2023/01/19 04:05:30;;;;;;;10.15;5.85;;;3.90;99.90;;;;;;5034430;28;20817;-72
2023/01/19 04:07:56;;;;;;;8.27;6.30;;;3.90;99.90;;;;;;5033459;28;20192;-71
2023/01/19 04:10:24;;;;;;;9.20;6.70;;;3.90;99.90;;;;;;5032958;28;20204;-72
2023/01/19 04:12:56;;;;;;;8.23;5.88;;;3.90;99.90;;;;;;5033264;28;20491;-71
2023/01/19 04:15:23;;;;;;;9.32;7.07;;;3.90;99.90;;;;;;5034287;28;20242;-71
2023/01/19 04:17:49;;;;;;;8.50;6.22;;;3.90;99.90;;;;;;5016974;28;20212;-73
2023/01/19 04:20:15;;;;;;;9.07;6.43;;;3.90;99.90;;;;;;5033143;28;20170;-71
2023/01/19 04:22:41;;;;;;;9.90;6.55;;;3.90;99.90;;;;;;5033184;28;20216;-72
2023/01/19 04:25:10;;;;;;;9.05;6.45;;;3.90;99.90;;;;;;5032956;28;20228;-71
2023/01/19 04:27:36;;;;;;;9.90;6.83;;;3.90;99.90;;;;;;5033434;28;20232;-72
2023/01/19 04:30:05;;;;;;;8.70;6.00;;;3.90;99.90;;;;;;5034296;28;20475;-72
2023/01/19 04:32:35;;;;;;;8.02;5.53;;;3.90;99.90;;;;;;5019967;28;20192;-72
2023/01/19 04:35:02;;;;;;;8.93;6.47;;;3.90;99.90;;;;;;5053945;28;20589;-72
2023/01/19 04:37:30;;;;;;;9.95;7.30;;;3.90;99.90;;;;;;5053798;28;20172;-72
2023/01/19 04:39:59;;;;;;;9.70;6.72;;;3.90;99.90;;;;;;5052648;28;20176;-71
2023/01/19 04:42:26;;;;;;;8.25;6.43;;;3.90;99.90;;;;;;5052723;28;20168;-72
2023/01/19 04:44:52;;;;;;;9.48;6.45;;;3.90;99.90;;;;;;5052801;28;20211;-72
2023/01/19 04:47:18;;;;;;;9.15;6.60;;;3.90;99.90;;;;;;5052575;28;20718;-71
2023/01/19 04:49:46;;;;;;;9.50;6.60;;;3.90;99.90;;;;;;5028186;28;20208;-71
2023/01/19 04:52:15;;;;;;;8.90;7.00;;;3.90;99.90;;;;;;5016140;28;20514;-71
2023/01/19 04:54:46;;;;;;;10.43;6.50;;;3.90;99.90;;;;;;5033658;28;20686;-71
2023/01/19 04:57:12;;;;;;;9.90;6.55;;;3.90;99.90;;;;;;5033669;28;20157;-71
2023/01/19 04:59:40;;;;;;;8.75;6.43;;;3.90;99.90;;;;;;5034051;28;20181;-71
2023/01/19 05:02:11;;;;;;;10.30;6.80;;;3.90;99.90;;;;;;5032402;28;20568;-71
2023/01/19 05:04:39;;;;;;;12.70;7.50;;;3.90;99.90;;;;;;5015965;28;20235;-71
2023/01/19 05:07:05;;;;;;;11.10;6.75;;;3.90;99.90;;;;;;5032712;28;20283;-71
2023/01/19 05:09:35;;;;;;;10.87;6.90;;;3.90;99.90;;;;;;5032267;28;20273;-71
2023/01/19 05:12:02;;;;;;;9.25;7.32;;;3.90;99.90;;;;;;5015786;28;20437;-72
2023/01/19 05:14:30;;;;;;;11.85;7.38;;;3.90;99.90;;;;;;5032315;28;20735;-72
2023/01/19 05:16:56;;;;;;;11.32;7.80;;;3.90;99.90;;;;;;5015835;28;20180;-71
2023/01/19 05:19:22;;;;;;;11.70;7.57;;;3.90;99.90;;;;;;5032081;28;20263;-71
2023/01/19 05:21:50;;;;;;;12.77;7.90;;;3.90;99.90;;;;;;5031970;28;20435;-71
2023/01/19 05:24:17;;;;;;;9.63;7.27;;;3.90;99.90;;;;;;5032693;28;20825;-71
2023/01/19 05:26:43;;;;;;;11.35;7.13;;;3.90;99.90;;;;;;5012196;28;21082;-71
2023/01/19 05:29:09;;;;;;;11.98;7.63;;;3.90;99.90;;;;;;4995805;28;20666;-71
2023/01/19 05:31:36;;;;;;;12.90;8.53;;;3.90;99.90;;;;;;5016393;28;20168;-74
2023/01/19 05:34:05;;;;;;;10.05;7.40;;;3.90;99.90;;;;;;5031806;28;20440;-74
2023/01/19 05:36:33;;;;;;;12.48;7.65;;;3.90;99.90;;;;;;5031878;28;20176;-74
2023/01/19 05:38:59;;;;;;;15.93;7.88;;;3.90;99.90;;;;;;5033063;28;20165;-76
2023/01/19 05:41:27;;;;;;;13.82;7.60;;;3.90;99.90;;;;;;5033160;28;20176;-75
2023/01/19 05:43:54;;;;;;;11.25;7.45;;;3.90;99.90;;;;;;5031771;28;20197;-73
2023/01/19 05:46:24;;;;;;;11.00;8.20;;;3.90;99.90;;;;;;5048066;28;20185;-73
2023/01/19 05:48:53;;;;;;;10.55;7.68;;;3.90;99.90;;;;;;5030170;28;20681;-73
2023/01/19 05:51:21;;;;;;;10.20;7.00;;;3.90;99.90;;;;;;5044105;28;20172;-73
2023/01/19 05:53:47;;;;;;;11.27;7.05;;;3.90;99.90;;;;;;5068232;28;20231;-73
2023/01/19 05:56:15;;;;;;;10.50;7.43;;;3.90;99.90;;;;;;5033329;28;20244;-73
2023/01/19 05:58:44;;;;;;;11.57;6.90;;;3.90;99.90;;;;;;5031591;28;20181;-73
2023/01/19 06:01:10;;;;;;;12.25;7.45;;;3.90;99.90;;;;;;5015191;28;20225;-73
2023/01/19 06:03:38;;;;;;;9.73;7.38;;;3.90;99.90;;;;;;5048013;28;20179;-73
2023/01/19 06:06:04;;;;;;;10.15;7.35;;;3.90;99.90;;;;;;5014572;28;20244;-73
2023/01/19 06:08:30;;;;;;;9.02;6.60;;;3.90;99.90;;;;;;5034724;28;20187;-73
2023/01/19 06:10:59;;;;;;;12.37;8.20;;;3.90;99.90;;;;;;5014826;28;20173;-73
2023/01/19 06:13:25;;;;;;;9.38;6.47;;;3.90;99.90;;;;;;5014605;28;20479;-73
2023/01/19 06:16:04;;;;;;;10.65;7.50;;;3.90;99.90;;;;;;5031170;28;20227;-73
2023/01/19 06:18:30;;;;;;;6.95;6.00;;;3.90;99.90;;;;;;5031183;28;20208;-73
2023/01/19 06:21:00;;;;;;;8.57;6.82;;;3.90;99.90;;;;;;5032418;28;20165;-73
2023/01/19 06:23:32;;;;;;;7.50;6.15;;;3.90;99.90;;;;;;5031194;28;20272;-73
2023/01/19 06:25:59;;;;;;;8.35;5.93;;;3.90;99.90;;;;;;5017098;28;20256;-73
2023/01/19 06:28:25;;;;;;;11.93;7.72;;;3.90;99.90;;;;;;5011323;28;20205;-73
2023/01/19 06:30:53;;;;;;;7.72;5.28;;;3.90;99.90;;;;;;5011918;28;20181;-73
2023/01/19 06:33:22;;;;;;;7.93;5.70;;;3.90;99.90;;;;;;5000132;28;20188;-73
2023/01/19 06:35:50;;;;;;;8.70;5.35;;;3.90;99.90;;;;;;5031277;28;20671;-73
2023/01/19 06:38:17;;;;;;;7.45;5.25;;;3.90;99.90;;;;;;5039710;28;20201;-73
2023/01/19 06:40:44;;;;;;;7.75;5.25;;;3.90;99.90;;;;;;5051005;28;20306;-73
2023/01/19 06:43:11;;;;;;;9.18;5.20;;;3.90;99.90;;;;;;5067642;28;20160;-73
2023/01/19 06:45:39;;;;;;;6.03;4.80;;;3.90;99.90;;;;;;5051931;28;20285;-73
2023/01/19 06:48:08;;;;;;;6.10;4.70;;;3.90;99.90;;;;;;5051987;28;20192;-73
2023/01/19 06:50:34;;;;;;;6.43;4.85;;;3.90;99.90;;;;;;5022924;28;20219;-73
2023/01/19 06:53:03;;;;;;;4.53;4.05;;;3.90;99.90;;;;;;5030904;28;20169;-73
2023/01/19 06:55:34;;;;;;;8.13;5.53;;;3.90;99.90;;;;;;5031185;28;20211;-73
2023/01/19 06:58:02;;;;;;;4.93;4.18;;;3.90;99.90;;;;;;5014362;28;21063;-72
2023/01/19 07:00:31;;;;;;;6.00;5.00;;;3.90;99.90;;;;;;5014486;28;20184;-74
2023/01/19 07:02:59;;;;;;;5.50;4.40;;;3.90;99.90;;;;;;5014196;28;20251;-75
2023/01/19 07:05:28;;;;;;;5.85;4.47;;;3.90;99.90;;;;;;5029957;28;20582;-73
2023/01/19 07:07:56;;;;;;;6.00;4.20;;;3.90;99.90;;;;;;5013761;28;20556;-72
2023/01/19 07:10:23;;;;;;;6.30;4.25;;;3.90;99.90;;;;;;5031609;28;20523;-72
2023/01/19 07:12:50;;;;;;;6.25;4.28;;;3.90;99.90;;;;;;5030917;28;20243;-72
2023/01/19 07:15:21;;;;;;;5.70;4.63;;;3.90;99.90;;;;;;5030291;28;20192;-71
2023/01/19 07:17:47;;;;;;;4.50;3.63;;;3.90;99.90;;;;;;5030092;28;20531;-71
2023/01/19 07:20:13;;;;;;;5.07;4.25;;;3.90;99.90;;;;;;4994443;28;20247;-72
2023/01/19 07:22:44;;;;;;;4.95;4.15;;;3.90;99.90;;;;;;5011923;28;20572;-72
2023/01/19 07:25:10;;;;;;;5.43;4.10;;;3.90;99.90;;;;;;5010721;28;20626;-72
2023/01/19 07:27:36;;;;;;;5.00;4.05;;;3.90;99.90;;;;;;5022827;28;20208;-72
2023/01/19 07:30:07;;;;;;;5.13;3.90;;;3.90;99.90;;;;;;5033699;28;20256;-72
2023/01/19 07:32:36;;;;;;;5.00;4.40;;;3.90;99.90;;;;;;5017919;28;20182;-72
2023/01/19 07:35:03;;;;;;;4.97;4.40;;;3.90;99.90;;;;;;5033881;28;20289;-72
2023/01/19 07:37:29;;;;;;;5.90;4.43;;;3.90;99.90;;;;;;5049321;28;20208;-72
2023/01/19 07:39:57;;;;;;;5.85;4.25;;;3.90;99.90;;;;;;5054863;28;20196;-72
2023/01/19 07:42:23;;;;;;;6.68;4.40;;;3.90;99.90;;;;;;5053771;28;20180;-72
2023/01/19 07:44:51;;;;;;;6.00;4.43;;;3.90;99.90;;;;;;5054897;28;20558;-72
2023/01/19 07:47:17;;;;;;;6.15;4.70;;;3.90;99.90;;;;;;5053707;28;20450;-72
2023/01/19 07:49:43;;;;;;;7.40;5.50;;;3.90;99.90;;;;;;5016179;28;20202;-72
2023/01/19 07:52:09;;;;;;;6.13;5.28;;;3.90;99.90;;;;;;5053344;28;20307;-72
2023/01/19 07:54:35;;;;;;;6.97;5.90;;;3.90;99.90;;;;;;5053425;28;20239;-72
2023/01/19 07:57:01;;;;;;;6.07;4.43;;;3.90;99.90;;;;;;5045631;28;20316;-72
2023/01/19 07:59:29;;;;;;;7.13;5.10;;;3.90;99.90;;;;;;5016659;28;20428;-72
2023/01/19 08:01:58;;;;;;;5.97;4.80;;;3.90;99.90;;;;;;5034135;28;20416;-72
2023/01/19 08:04:27;;;;;;;7.93;5.82;;;3.90;99.90;;;;;;5033839;28;20232;-72
2023/01/19 08:06:54;;;;;;;8.02;6.43;;;3.90;99.90;;;;;;5016393;28;20296;-72
2023/01/19 08:09:20;;;;;;;8.38;5.65;;;3.90;99.90;;;;;;5033008;28;20173;-72
2023/01/19 08:11:47;;;;;;;8.05;5.90;;;3.90;99.90;;;;;;5032703;28;20205;-73
2023/01/19 08:14:13;;;;;;;8.70;5.32;;;3.90;99.90;;;;;;5016303;28;20188;-73
2023/01/19 08:16:39;;;;;;;7.95;5.63;;;4.00;99.90;;;;;;5032676;28;20230;-73
2023/01/19 08:19:05;;;;;;;7.13;5.78;;;4.00;99.90;;;;;;5020511;28;20288;-73
2023/01/19 08:21:35;;;;;;;7.13;5.28;;;4.00;99.90;;;;;;5029603;28;20190;-73
2023/01/19 08:24:01;;;;;;;6.85;5.57;;;4.00;99.90;;;;;;5014302;28;20259;-74
2023/01/19 08:26:30;;;;;;;6.90;5.25;;;4.00;99.90;;;;;;4998121;28;20206;-74
2023/01/19 08:28:59;;;;;;;8.40;5.88;;;4.00;99.90;;;;;;5017823;28;20177;-73
2023/01/19 08:31:26;;;;;;;8.85;5.93;;;4.00;99.90;;;;;;5052232;28;20168;-74
2023/01/19 08:33:52;;;;;;;7.45;5.40;;;4.00;99.90;;;;;;5052535;28;20184;-74
2023/01/19 08:36:18;;;;;;;8.63;5.70;;;4.00;99.90;;;;;;5023222;28;20696;-74
2023/01/19 08:38:45;;;;;;;8.35;5.75;;;4.00;99.90;;;;;;5026069;28;20533;-74
2023/01/19 08:41:12;;;;;;;7.43;6.00;;;4.00;99.90;;;;;;5012321;28;20568;-74
2023/01/19 08:43:38;;;;;;;10.40;7.68;;;4.00;99.90;;;;;;4996472;28;20600;-73
2023/01/19 08:46:04;;;;;;;11.27;6.90;;;4.00;99.90;;;;;;5013736;28;20632;-73
2023/01/19 08:48:32;;;;;;;14.98;7.47;;;4.00;99.90;;;;;;5031032;28;20251;-74
2023/01/19 08:53:43;;;;;;;8.65;6.78;;;4.00;99.90;;;;;;4976074;28;20536;-74
2023/01/19 08:56:12;;;;;;;7.03;5.75;;;4.00;99.90;;;;;;5012831;28;20166;-73
2023/01/19 08:58:40;;;;;;;10.40;7.00;;;4.00;99.90;;;;;;4995247;28;20245;-74
2023/01/19 09:01:07;;;;;;;11.77;6.00;;;4.00;99.90;;;;;;4979083;28;20277;-73
2023/01/19 09:03:36;;;;;;;9.55;6.50;;;4.00;99.90;;;;;;4963238;28;20268;-73
2023/01/19 09:06:06;;;;;;;10.35;6.40;;;4.00;99.90;;;;;;4994958;28;20212;-73
2023/01/19 09:08:35;;;;;;;9.77;7.18;;;4.00;99.90;;;;;;5013267;28;20165;-74
2023/01/19 09:11:01;;;;;;;9.70;6.87;;;4.00;99.90;;;;;;4980768;28;20170;-73
2023/01/19 09:13:27;;;;;;;8.35;6.90;;;4.00;99.90;;;;;;5013378;28;20440;-73
2023/01/19 09:15:53;;;;;;;10.20;7.60;;;4.00;99.90;;;;;;4996775;28;20617;-74
2023/01/19 09:18:21;;;;;;;10.20;6.50;;;4.00;99.90;;;;;;4996748;28;20904;-73
2023/01/19 09:20:50;;;;;;;8.43;6.60;;;4.00;99.90;;;;;;4981972;28;20174;-73
2023/01/19 09:23:18;;;;;;;10.80;7.40;;;4.00;99.90;;;;;;4964634;28;20228;-74
2023/01/19 09:25:48;;;;;;;10.25;7.45;;;4.00;99.90;;;;;;4997024;28;20206;-74
2023/01/19 09:28:16;;;;;;;10.40;7.20;;;4.00;99.90;;;;;;4996795;28;20186;-74
2023/01/19 09:30:45;;;;;;;13.85;8.23;;;4.00;99.90;;;;;;4981344;28;20221;-75
2023/01/19 09:33:14;;;;;;;9.73;7.63;;;4.00;99.90;;;;;;4996805;28;20178;-75
2023/01/19 09:35:41;;;;;;;10.93;8.25;;;4.00;99.90;;;;;;4980537;28;20210;-75
2023/01/19 09:38:08;;;;;;;10.85;7.65;;;4.00;99.90;;;;;;5014033;28;20172;-75
2023/01/19 09:40:41;;;;;;;10.07;7.40;;;4.10;99.90;;;;;;4980731;28;20182;-75
2023/01/19 09:43:18;;;;;;;11.75;8.20;;;4.10;99.90;;;;;;4996592;28;20224;-74
2023/01/19 09:45:47;;;;;;;13.15;9.20;;;4.10;99.90;;;;;;4996515;28;20204;-75
2023/01/19 09:48:27;;;;;;;13.60;9.18;;;4.10;99.90;;;;;;5013406;28;20197;-74
2023/01/19 09:50:57;;;;;;;12.68;7.72;;;4.00;99.90;;;;;;4996457;28;20194;-73
2023/01/19 09:53:43;;;;;;;14.00;9.30;;;4.10;99.90;;;;;;4996344;28;20201;-72
2023/01/19 09:56:14;;;;;;;14.90;9.00;;;4.10;99.90;;;;;;4976347;28;20287;-74
2023/01/19 09:58:41;;;;;;;14.50;9.38;;;4.10;99.90;;;;;;4980271;28;20244;-74
2023/01/19 10:01:32;;;;;;;13.35;9.68;;;4.10;99.90;;;;;;4964124;28;20260;-74
2023/01/19 10:04:18;;;;;;;15.15;9.75;;;4.10;99.90;;;;;;4996168;28;20205;-73
2023/01/19 10:06:47;;;;;;;18.30;11.07;;;4.10;99.90;;;;;;4995945;28;20217;-74
2023/01/19 10:09:45;;;;;;;12.85;9.45;;;4.10;99.90;;;;;;5012688;28;20178;-73
2023/01/19 10:12:25;;;;;;;17.55;12.05;;;4.10;99.90;;;;;;5013375;28;20168;-74
2023/01/19 10:15:13;;;;;;;17.90;11.57;;;4.10;99.90;;;;;;4995991;28;20804;-73
2023/01/19 10:18:01;;;;;;;20.63;12.15;;;4.10;99.90;;;;;;4980203;28;20651;-73
2023/01/19 10:20:32;;;;;;;14.75;9.95;;;4.10;99.90;;;;;;5013361;28;20210;-73
2023/01/19 10:23:03;;;;;;;15.10;11.32;;;4.10;99.90;;;;;;4996130;28;20181;-72
2023/01/19 10:25:30;;;;;;;19.15;11.95;;;4.10;99.90;;;;;;5013381;28;20197;-73
2023/01/19 10:27:58;;;;;;;19.33;11.65;;;4.10;99.90;;;;;;4995667;28;20335;-72
2023/01/19 10:30:29;;;;;;;23.45;13.43;;;4.10;99.90;;;;;;4995957;28;20166;-73
2023/01/19 10:32:59;;;;;;;21.23;12.85;;;4.10;99.90;;;;;;4980105;28;20174;-73
2023/01/19 10:35:25;;;;;;;20.33;12.98;;;4.10;99.90;;;;;;4996030;28;20204;-73
2023/01/19 10:37:55;;;;;;;19.53;11.40;;;4.10;99.90;;;;;;4979498;28;20189;-73
2023/01/19 10:40:33;;;;;;;20.52;12.75;;;4.10;99.90;;;;;;4979882;28;20405;-73
2023/01/19 10:42:59;;;;;;;18.73;13.25;;;4.10;99.90;;;;;;5013299;28;20172;-73
2023/01/19 10:45:30;;;;;;;27.02;14.63;;;4.10;99.90;;;;;;4979701;28;20209;-73
2023/01/19 10:48:06;;;;;;;22.75;14.13;;;4.10;99.90;;;;;;4995676;28;20340;-73
2023/01/19 10:50:38;;;;;;;22.70;12.85;;;4.10;99.90;;;;;;4995905;28;20668;-73
2023/01/19 10:53:20;;;;;;;18.05;12.13;;;4.10;99.90;;;;;;5013154;28;20205;-73
2023/01/19 10:55:46;;;;;;;20.75;13.90;;;4.10;99.90;;;;;;4963289;28;20308;-73
2023/01/19 10:58:29;;;;;;;24.95;13.80;;;4.10;99.90;;;;;;4995695;28;20240;-73
2023/01/19 11:01:19;;;;;;;24.63;14.32;;;4.10;99.90;;;;;;5015384;28;20272;-73
2023/01/19 11:03:45;;;;;;;24.13;14.32;;;4.10;99.90;;;;;;4999349;28;20240;-72
2023/01/19 11:06:14;;;;;;;30.27;14.35;;;4.10;99.90;;;;;;5015633;28;20216;-75
2023/01/19 11:08:49;;;;;;;21.07;13.40;;;4.10;99.90;;;;;;5015850;28;20654;-73
2023/01/19 11:11:16;;;;;;;29.85;14.18;;;4.10;99.90;;;;;;4999157;28;20585;-75
2023/01/19 11:13:42;;;;;;;25.73;14.23;;;4.10;99.90;;;;;;4999354;28;20244;-75
2023/01/19 11:16:22;;;;;;;24.17;13.98;;;4.10;99.90;;;;;;5016713;28;20240;-75
2023/01/19 11:19:00;;;;;;;29.63;15.48;;;4.10;99.90;;;;;;4982790;28;20184;-75
2023/01/19 11:21:31;;;;;;;23.13;14.93;;;4.10;99.90;;;;;;5015469;28;20149;-74
2023/01/19 11:24:01;;;;;;;29.25;15.30;;;4.10;99.90;;;;;;4982647;28;20205;-74
2023/01/19 11:26:30;;;;;;;22.08;14.48;;;4.10;99.90;;;;;;4997558;28;20209;-74
2023/01/19 11:28:58;;;;;;;23.88;15.38;;;4.10;99.90;;;;;;5014056;28;20162;-73
2023/01/19 11:31:27;;;;;;;25.20;15.10;;;4.10;99.90;;;;;;4997954;28;20245;-76
2023/01/19 11:34:02;;;;;;;24.23;13.93;;;4.10;99.90;;;;;;5013931;28;20197;-73
2023/01/19 11:36:31;;;;;;;25.83;14.70;;;4.10;99.90;;;;;;5014585;28;20201;-72
2023/01/19 11:39:19;;;;;;;25.05;15.65;;;4.10;99.90;;;;;;4997549;28;20185;-71
2023/01/19 11:41:50;;;;;;;26.52;15.20;;;4.20;99.90;;;;;;4997546;28;20678;-72
2023/01/19 11:44:44;;;;;;;34.00;16.08;;;4.20;99.90;;;;;;4997255;28;20200;-72
2023/01/19 11:47:26;;;;;;;24.23;14.48;;;4.10;99.90;;;;;;4986743;28;20210;-72
2023/01/19 11:50:15;;;;;;;25.13;15.25;;;4.10;99.90;;;;;;5006622;28;20535;-72
2023/01/19 11:52:54;;;;;;;24.23;15.70;;;4.20;99.90;;;;;;4977556;28;20229;-72
2023/01/19 11:55:37;;;;;;;29.65;16.40;;;4.20;99.90;;;;;;4981781;28;20201;-72
2023/01/19 11:58:04;;;;;;;27.13;15.80;;;4.20;99.90;;;;;;4981087;28;20190;-72
2023/01/19 12:00:43;;;;;;;22.15;13.43;;;4.20;99.90;;;;;;4996198;28;20185;-72
2023/01/19 12:03:30;;;;;;;29.20;15.05;;;4.20;99.90;;;;;;5013223;28;20172;-72
2023/01/19 12:06:08;;;;;;;31.45;16.67;;;4.20;99.90;;;;;;5012925;28;20193;-72
2023/01/19 12:08:49;;;;;;;24.02;15.25;;;4.20;99.90;;;;;;4996809;28;20161;-72
2023/01/19 12:11:22;;;;;;;25.08;15.88;;;4.20;99.90;;;;;;5012227;28;20165;-72
2023/01/19 12:13:50;;;;;;;26.17;15.93;;;4.20;99.90;;;;;;4997145;28;20174;-72
2023/01/19 12:16:25;;;;;;;27.63;17.13;;;4.20;99.90;;;;;;4996982;28;20665;-72
2023/01/19 12:19:12;;;;;;;34.08;17.23;;;4.20;99.90;;;;;;5014168;28;20284;-72
2023/01/19 12:21:40;;;;;;;28.98;17.75;;;4.20;99.90;;;;;;5014046;28;20253;-72
2023/01/19 12:24:15;;;;;;;23.95;14.73;;;4.20;99.90;;;;;;4963851;28;20249;-72
2023/01/19 12:26:55;;;;;;;22.67;14.68;;;4.20;99.90;;;;;;5013941;28;20316;-72
2023/01/19 12:29:24;;;;;;;24.58;15.82;;;4.20;99.90;;;;;;4996601;28;20579;-72
2023/01/19 12:32:12;;;;;;;24.40;15.45;;;4.20;99.90;;;;;;5013771;28;20188;-73
2023/01/19 12:34:46;;;;;;;29.85;16.08;;;4.20;99.90;;;;;;5012483;28;20198;-72
2023/01/19 12:37:39;;;;;;;21.40;14.35;;;4.20;99.90;;;;;;5013796;28;20240;-72
2023/01/19 12:40:20;;;;;;;25.23;15.65;;;4.20;99.90;;;;;;4996353;28;20185;-72
2023/01/19 12:43:02;;;;;;;27.42;15.88;;;4.20;99.90;;;;;;4996177;28;20705;-72
2023/01/19 12:45:34;;;;;;;22.77;14.43;;;4.20;99.90;;;;;;4964447;28;20209;-72
2023/01/19 12:48:01;;;;;;;29.10;16.08;;;4.20;99.90;;;;;;4979762;28;20236;-72
2023/01/19 12:50:37;;;;;;;20.20;13.68;;;4.20;99.90;;;;;;5013090;28;20189;-71
2023/01/19 12:53:14;;;;;;;23.13;14.30;;;4.20;99.90;;;;;;4979921;28;20201;-72
2023/01/19 12:55:46;;;;;;;22.50;14.38;;;4.30;99.90;;;;;;4994704;28;20213;-70
2023/01/19 12:58:22;;;;;;;25.85;14.55;;;4.30;99.90;;;;;;5012290;28;20174;-70
2023/01/19 13:01:03;;;;;;;21.92;13.73;;;4.30;99.90;;;;;;4995736;28;20197;-70
2023/01/19 13:03:29;;;;;;;21.80;12.98;;;4.30;99.90;;;;;;4995461;28;20303;-70
2023/01/19 13:05:58;;;;;;;25.98;13.70;;;4.30;99.90;;;;;;5011652;28;20526;-70
2023/01/19 13:08:29;;;;;;;30.33;14.98;;;4.30;99.90;;;;;;4995387;28;20251;-71
2023/01/19 13:11:04;;;;;;;18.98;13.50;;;4.30;99.90;;;;;;4995594;28;20181;-70
2023/01/19 13:13:37;;;;;;;21.95;13.93;;;4.40;99.90;;;;;;4995542;28;20213;-71
2023/01/19 13:16:18;;;;;;;19.00;12.80;;;4.40;99.90;;;;;;4978883;28;20682;-70
2023/01/19 13:18:49;;;;;;;20.20;13.15;;;4.40;99.90;;;;;;4995729;28;20240;-70
2023/01/19 13:21:35;;;;;;;23.05;13.50;;;4.40;99.90;;;;;;5012473;28;20194;-70
2023/01/19 13:24:13;;;;;;;23.23;12.27;;;4.40;99.90;;;;;;4962564;28;20201;-70